DAL1063 KATL-KMDW
Flight info
| Callsign | DAL1063 |
|---|---|
| Flight time | 1h 33m |
| Altitude | 34000 |
| Route | VARNM2 RESPE IIU DROSE FISSK7 |
| Aircraft | E75L/M-SDE3GILORVW/S |
Departure
| Time | 2026-05-05 01:13 |
|---|---|
| Airport | Hartsfield Jackson Atlanta International Airport (KATL) |
Arrival
| Time | 2026-05-05 02:47 |
|---|---|
| Airport | Chicago Midway International Airport (KMDW) |
| Time | Latitude | Longitude | Altitude | Speed | Heading |
|---|---|---|---|---|---|
| 2026-05-05 00:53 | 33.64299 | -84.43525 | 1004 ft | 0 kts | 270° |
| 2026-05-05 01:00 | 33.64298 | -84.43501 | 1004 ft | 4 kts | 277° |
| 2026-05-05 01:00 | 33.64290 | -84.43471 | 1004 ft | 4 kts | 304° |
| 2026-05-05 01:01 | 33.64273 | -84.43458 | 1004 ft | 1 kts | 0° |
| 2026-05-05 01:01 | 33.64268 | -84.43458 | 1004 ft | 0 kts | 0° |
| 2026-05-05 01:04 | 33.64269 | -84.43458 | 1004 ft | 0 kts | 360° |
| 2026-05-05 01:05 | 33.64274 | -84.43459 | 1004 ft | 1 kts | 357° |
| 2026-05-05 01:05 | 33.64285 | -84.43460 | 1004 ft | 2 kts | 357° |
| 2026-05-05 01:05 | 33.64304 | -84.43460 | 1008 ft | 4 kts | 359° |
| 2026-05-05 01:05 | 33.64337 | -84.43460 | 1004 ft | 6 kts | 360° |
| 2026-05-05 01:06 | 33.64383 | -84.43459 | 1004 ft | 8 kts | 1° |
| 2026-05-05 01:06 | 33.64438 | -84.43443 | 1004 ft | 9 kts | 38° |
| 2026-05-05 01:06 | 33.64459 | -84.43369 | 1004 ft | 11 kts | 88° |
| 2026-05-05 01:06 | 33.64460 | -84.43275 | 1004 ft | 12 kts | 90° |
| 2026-05-05 01:07 | 33.64460 | -84.43169 | 1004 ft | 13 kts | 90° |
| 2026-05-05 01:07 | 33.64459 | -84.43051 | 1004 ft | 15 kts | 89° |
| 2026-05-05 01:07 | 33.64461 | -84.42921 | 1004 ft | 16 kts | 91° |
| 2026-05-05 01:07 | 33.64461 | -84.42779 | 1004 ft | 18 kts | 86° |
| 2026-05-05 01:08 | 33.64469 | -84.42628 | 1004 ft | 19 kts | 90° |
| 2026-05-05 01:08 | 33.64468 | -84.42467 | 1004 ft | 20 kts | 90° |
| 2026-05-05 01:08 | 33.64468 | -84.42305 | 1004 ft | 17 kts | 89° |
| 2026-05-05 01:08 | 33.64510 | -84.42177 | 1004 ft | 17 kts | 59° |
| 2026-05-05 01:09 | 33.64541 | -84.42043 | 1004 ft | 17 kts | 91° |
| 2026-05-05 01:09 | 33.64542 | -84.41895 | 1004 ft | 18 kts | 90° |
| 2026-05-05 01:09 | 33.64544 | -84.41735 | 1004 ft | 20 kts | 90° |
| 2026-05-05 01:09 | 33.64543 | -84.41561 | 1005 ft | 23 kts | 89° |
| 2026-05-05 01:10 | 33.64546 | -84.41363 | 1005 ft | 24 kts | 86° |
| 2026-05-05 01:10 | 33.64545 | -84.41157 | 1005 ft | 25 kts | 91° |
| 2026-05-05 01:10 | 33.64543 | -84.40942 | 1004 ft | 25 kts | 91° |
| 2026-05-05 01:10 | 33.64559 | -84.40795 | 1004 ft | 18 kts | 68° |
| 2026-05-05 01:11 | 33.64570 | -84.40649 | 1003 ft | 14 kts | 91° |
| 2026-05-05 01:11 | 33.64580 | -84.40600 | 1003 ft | 0 kts | 49° |
| 2026-05-05 01:11 | 33.64582 | -84.40598 | 1003 ft | 2 kts | 49° |
| 2026-05-05 01:11 | 33.64601 | -84.40580 | 1003 ft | 6 kts | 25° |
| 2026-05-05 01:12 | 33.64644 | -84.40568 | 1002 ft | 8 kts | 0° |
| 2026-05-05 01:12 | 33.64679 | -84.40604 | 1001 ft | 7 kts | 279° |
| 2026-05-05 01:12 | 33.64681 | -84.40677 | 1001 ft | 12 kts | 269° |
| 2026-05-05 01:12 | 33.64680 | -84.40964 | 1005 ft | 67 kts | 270° |
| 2026-05-05 01:13 | 33.64678 | -84.41798 | 1005 ft | 134 kts | 270° |
| 2026-05-05 01:13 | 33.64715 | -84.43107 | 1269 ft | 167 kts | 272° |
| 2026-05-05 01:13 | 33.64769 | -84.44528 | 2100 ft | 175 kts | 272° |
| 2026-05-05 01:13 | 33.64921 | -84.46037 | 2786 ft | 185 kts | 277° |
| 2026-05-05 01:14 | 33.65325 | -84.47538 | 3481 ft | 193 kts | 289° |
| 2026-05-05 01:14 | 33.65871 | -84.49038 | 4140 ft | 198 kts | 290° |
| 2026-05-05 01:14 | 33.66431 | -84.50573 | 4766 ft | 203 kts | 291° |
| 2026-05-05 01:14 | 33.67013 | -84.52135 | 5358 ft | 207 kts | 291° |
| 2026-05-05 01:15 | 33.67622 | -84.53755 | 5815 ft | 221 kts | 291° |
| 2026-05-05 01:15 | 33.68269 | -84.55451 | 6407 ft | 228 kts | 294° |
| 2026-05-05 01:15 | 33.69215 | -84.57084 | 6786 ft | 256 kts | 315° |
| 2026-05-05 01:15 | 33.70819 | -84.58097 | 7278 ft | 276 kts | 344° |
| 2026-05-05 01:16 | 33.72796 | -84.58331 | 7898 ft | 288 kts | 358° |
| 2026-05-05 01:16 | 33.74794 | -84.58289 | 8606 ft | 293 kts | 359° |
| 2026-05-05 01:16 | 33.76841 | -84.58255 | 9394 ft | 296 kts | 359° |
| 2026-05-05 01:16 | 33.78916 | -84.58204 | 9988 ft | 302 kts | 360° |
| 2026-05-05 01:17 | 33.81035 | -84.58106 | 10016 ft | 305 kts | 1° |
| 2026-05-05 01:17 | 33.83189 | -84.58077 | 10019 ft | 320 kts | 357° |
| 2026-05-05 01:17 | 33.85459 | -84.58119 | 10029 ft | 330 kts | 357° |
| 2026-05-05 01:17 | 33.87777 | -84.58192 | 10045 ft | 336 kts | 356° |
| 2026-05-05 01:18 | 33.90122 | -84.58269 | 10053 ft | 339 kts | 356° |
| 2026-05-05 01:18 | 33.92491 | -84.58345 | 10063 ft | 341 kts | 356° |
| 2026-05-05 01:18 | 33.94874 | -84.58419 | 10066 ft | 343 kts | 356° |
| 2026-05-05 01:18 | 33.97262 | -84.58494 | 10005 ft | 343 kts | 356° |
| 2026-05-05 01:19 | 33.99634 | -84.58564 | 9986 ft | 334 kts | 356° |
| 2026-05-05 01:19 | 34.01984 | -84.58635 | 10006 ft | 341 kts | 356° |
| 2026-05-05 01:19 | 34.04358 | -84.58708 | 10003 ft | 342 kts | 356° |
| 2026-05-05 01:19 | 34.06739 | -84.58782 | 10000 ft | 342 kts | 356° |
| 2026-05-05 01:20 | 34.09131 | -84.58852 | 9997 ft | 343 kts | 356° |
| 2026-05-05 01:20 | 34.11523 | -84.58926 | 9997 ft | 344 kts | 356° |
| 2026-05-05 01:20 | 34.13921 | -84.58997 | 9991 ft | 345 kts | 356° |
| 2026-05-05 01:20 | 34.16320 | -84.59070 | 9989 ft | 345 kts | 356° |
| 2026-05-05 01:21 | 34.18686 | -84.59141 | 9985 ft | 345 kts | 356° |
| 2026-05-05 01:21 | 34.21084 | -84.59214 | 9991 ft | 345 kts | 356° |
| 2026-05-05 01:21 | 34.23483 | -84.59286 | 9995 ft | 345 kts | 356° |
| 2026-05-05 01:21 | 34.25884 | -84.59357 | 9998 ft | 345 kts | 356° |
| 2026-05-05 01:22 | 34.28284 | -84.59453 | 10362 ft | 344 kts | 353° |
| 2026-05-05 01:22 | 34.30649 | -84.59883 | 10920 ft | 345 kts | 345° |
| 2026-05-05 01:22 | 34.33007 | -84.60512 | 11498 ft | 349 kts | 346° |
| 2026-05-05 01:22 | 34.34587 | -84.60907 | 11905 ft | 350 kts | 346° |
| 2026-05-05 01:23 | 34.36984 | -84.61508 | 12533 ft | 354 kts | 346° |
| 2026-05-05 01:23 | 34.39403 | -84.62110 | 13187 ft | 356 kts | 346° |
| 2026-05-05 01:23 | 34.41844 | -84.62715 | 13850 ft | 360 kts | 346° |
| 2026-05-05 01:23 | 34.44304 | -84.63324 | 14484 ft | 362 kts | 346° |
| 2026-05-05 01:24 | 34.46785 | -84.63935 | 15096 ft | 365 kts | 346° |
| 2026-05-05 01:24 | 34.49283 | -84.64553 | 15729 ft | 368 kts | 346° |
| 2026-05-05 01:24 | 34.51807 | -84.65172 | 16354 ft | 371 kts | 346° |
| 2026-05-05 01:24 | 34.54346 | -84.65799 | 16949 ft | 374 kts | 345° |
| 2026-05-05 01:25 | 34.56904 | -84.66429 | 17553 ft | 377 kts | 345° |
| 2026-05-05 01:25 | 34.59450 | -84.67059 | 18149 ft | 380 kts | 345° |
| 2026-05-05 01:25 | 34.62046 | -84.67699 | 18782 ft | 381 kts | 345° |
| 2026-05-05 01:25 | 34.64659 | -84.68342 | 19391 ft | 384 kts | 345° |
| 2026-05-05 01:26 | 34.67287 | -84.68991 | 19999 ft | 387 kts | 345° |
| 2026-05-05 01:26 | 34.69929 | -84.69644 | 20632 ft | 389 kts | 346° |
| 2026-05-05 01:26 | 34.72599 | -84.70305 | 21231 ft | 391 kts | 346° |
| 2026-05-05 01:26 | 34.75277 | -84.70968 | 21785 ft | 395 kts | 346° |
| 2026-05-05 01:27 | 34.77979 | -84.71637 | 22338 ft | 397 kts | 346° |
| 2026-05-05 01:27 | 34.80694 | -84.72311 | 22882 ft | 400 kts | 346° |
| 2026-05-05 01:27 | 34.83429 | -84.72988 | 23402 ft | 403 kts | 346° |
| 2026-05-05 01:27 | 34.86184 | -84.73674 | 23867 ft | 405 kts | 346° |
| 2026-05-05 01:28 | 34.88957 | -84.74362 | 24311 ft | 408 kts | 346° |
| 2026-05-05 01:28 | 34.91748 | -84.75058 | 24752 ft | 411 kts | 346° |
| 2026-05-05 01:28 | 34.94533 | -84.75750 | 25204 ft | 414 kts | 346° |
| 2026-05-05 01:28 | 34.97359 | -84.76455 | 25690 ft | 416 kts | 345° |
| 2026-05-05 01:29 | 35.00205 | -84.77164 | 26160 ft | 418 kts | 345° |
| 2026-05-05 01:29 | 35.03063 | -84.77879 | 26582 ft | 421 kts | 345° |
| 2026-05-05 01:29 | 35.05938 | -84.78596 | 26986 ft | 423 kts | 345° |
| 2026-05-05 01:29 | 35.08827 | -84.79320 | 27365 ft | 425 kts | 345° |
| 2026-05-05 01:30 | 35.11736 | -84.80047 | 27728 ft | 427 kts | 345° |
| 2026-05-05 01:30 | 35.14649 | -84.80776 | 28106 ft | 428 kts | 345° |
| 2026-05-05 01:30 | 35.17576 | -84.81511 | 28463 ft | 430 kts | 345° |
| 2026-05-05 01:30 | 35.20514 | -84.82248 | 28811 ft | 432 kts | 345° |
| 2026-05-05 01:31 | 35.23470 | -84.82990 | 29149 ft | 434 kts | 345° |
| 2026-05-05 01:31 | 35.26430 | -84.83734 | 29630 ft | 433 kts | 344° |
| 2026-05-05 01:31 | 35.29341 | -84.84465 | 30144 ft | 431 kts | 344° |
| 2026-05-05 01:31 | 35.32270 | -84.85202 | 30597 ft | 429 kts | 344° |
| 2026-05-05 01:32 | 35.35186 | -84.85936 | 31009 ft | 427 kts | 344° |
| 2026-05-05 01:32 | 35.38088 | -84.86668 | 31396 ft | 425 kts | 344° |
| 2026-05-05 01:32 | 35.40979 | -84.87397 | 31789 ft | 423 kts | 344° |
| 2026-05-05 01:32 | 35.43867 | -84.88127 | 32139 ft | 422 kts | 344° |
| 2026-05-05 01:33 | 35.46741 | -84.88853 | 32485 ft | 421 kts | 344° |
| 2026-05-05 01:33 | 35.49606 | -84.89578 | 32829 ft | 420 kts | 344° |
| 2026-05-05 01:33 | 35.52441 | -84.90296 | 33150 ft | 419 kts | 344° |
| 2026-05-05 01:33 | 35.55295 | -84.91019 | 33460 ft | 418 kts | 344° |
| 2026-05-05 01:34 | 35.58138 | -84.91740 | 33779 ft | 417 kts | 343° |
| 2026-05-05 01:34 | 35.60967 | -84.92456 | 34021 ft | 409 kts | 343° |
| 2026-05-05 01:34 | 35.66494 | -84.93856 | 34025 ft | 405 kts | 343° |
| 2026-05-05 01:35 | 35.71997 | -84.95253 | 34017 ft | 407 kts | 343° |
| 2026-05-05 01:35 | 35.77545 | -84.96665 | 34014 ft | 407 kts | 343° |
| 2026-05-05 01:36 | 35.83103 | -84.98080 | 34014 ft | 409 kts | 343° |
| 2026-05-05 01:36 | 35.88662 | -84.99496 | 34042 ft | 408 kts | 343° |
| 2026-05-05 01:37 | 35.94224 | -85.00916 | 34047 ft | 408 kts | 343° |
| 2026-05-05 01:37 | 35.99785 | -85.02338 | 34026 ft | 408 kts | 343° |
| 2026-05-05 01:38 | 36.05344 | -85.03760 | 34006 ft | 407 kts | 343° |
| 2026-05-05 01:38 | 36.10950 | -85.05199 | 34017 ft | 413 kts | 344° |
| 2026-05-05 01:39 | 36.16593 | -85.06648 | 33974 ft | 415 kts | 343° |
| 2026-05-05 01:39 | 36.22216 | -85.08093 | 33978 ft | 416 kts | 343° |
| 2026-05-05 01:40 | 36.27887 | -85.09553 | 33972 ft | 416 kts | 343° |
| 2026-05-05 01:40 | 36.33555 | -85.11015 | 33969 ft | 416 kts | 343° |
| 2026-05-05 01:41 | 36.39229 | -85.12481 | 33965 ft | 416 kts | 343° |
| 2026-05-05 01:41 | 36.44896 | -85.13945 | 33962 ft | 414 kts | 343° |
| 2026-05-05 01:42 | 36.50506 | -85.15399 | 33954 ft | 415 kts | 343° |
| 2026-05-05 01:42 | 36.56158 | -85.16865 | 33948 ft | 415 kts | 343° |
| 2026-05-05 01:43 | 36.61812 | -85.18333 | 33954 ft | 415 kts | 343° |
| 2026-05-05 01:43 | 36.67466 | -85.19804 | 33925 ft | 414 kts | 343° |
| 2026-05-05 01:44 | 36.73105 | -85.21273 | 33946 ft | 413 kts | 343° |
| 2026-05-05 01:44 | 36.78733 | -85.22743 | 33943 ft | 413 kts | 343° |
| 2026-05-05 01:45 | 36.84367 | -85.24216 | 33939 ft | 413 kts | 343° |
| 2026-05-05 01:45 | 36.89999 | -85.25690 | 33964 ft | 414 kts | 343° |
| 2026-05-05 01:46 | 36.95588 | -85.27155 | 33919 ft | 413 kts | 342° |
| 2026-05-05 01:46 | 37.01211 | -85.28632 | 33917 ft | 413 kts | 342° |
| 2026-05-05 01:47 | 37.06829 | -85.30108 | 33909 ft | 413 kts | 342° |
| 2026-05-05 01:47 | 37.12454 | -85.31589 | 33906 ft | 413 kts | 342° |
| 2026-05-05 01:48 | 37.18076 | -85.33071 | 33909 ft | 412 kts | 342° |
| 2026-05-05 01:48 | 37.23697 | -85.34557 | 33895 ft | 413 kts | 342° |
| 2026-05-05 01:49 | 37.29323 | -85.36046 | 33887 ft | 413 kts | 342° |
| 2026-05-05 01:49 | 37.34916 | -85.37527 | 33878 ft | 413 kts | 342° |
| 2026-05-05 01:50 | 37.40535 | -85.39019 | 33857 ft | 414 kts | 343° |
| 2026-05-05 01:50 | 37.46191 | -85.40522 | 33866 ft | 415 kts | 343° |
| 2026-05-05 01:51 | 37.51837 | -85.42024 | 33857 ft | 414 kts | 343° |
| 2026-05-05 01:51 | 37.57482 | -85.43528 | 33837 ft | 414 kts | 343° |
| 2026-05-05 01:52 | 37.63118 | -85.45033 | 33845 ft | 414 kts | 343° |
| 2026-05-05 01:52 | 37.68747 | -85.46540 | 33825 ft | 416 kts | 343° |
| 2026-05-05 01:53 | 37.74412 | -85.48057 | 33822 ft | 416 kts | 343° |
| 2026-05-05 01:53 | 37.80076 | -85.49576 | 33824 ft | 416 kts | 343° |
| 2026-05-05 01:54 | 37.85745 | -85.51099 | 33824 ft | 416 kts | 343° |
| 2026-05-05 01:54 | 37.91431 | -85.52630 | 33830 ft | 418 kts | 344° |
| 2026-05-05 01:55 | 37.97092 | -85.54155 | 33822 ft | 418 kts | 344° |
| 2026-05-05 01:55 | 38.02785 | -85.55692 | 33816 ft | 418 kts | 344° |
| 2026-05-05 01:56 | 38.08480 | -85.57231 | 33811 ft | 418 kts | 344° |
| 2026-05-05 01:56 | 38.14225 | -85.58561 | 33826 ft | 422 kts | 348° |
| 2026-05-05 01:57 | 38.20038 | -85.59621 | 33808 ft | 422 kts | 347° |
| 2026-05-05 01:57 | 38.25810 | -85.60700 | 33803 ft | 421 kts | 347° |
| 2026-05-05 01:58 | 38.31612 | -85.61795 | 33808 ft | 421 kts | 347° |
| 2026-05-05 01:58 | 38.37412 | -85.62896 | 33791 ft | 421 kts | 347° |
| 2026-05-05 01:59 | 38.43218 | -85.64002 | 33782 ft | 421 kts | 347° |
| 2026-05-05 01:59 | 38.48982 | -85.65106 | 33791 ft | 421 kts | 347° |
| 2026-05-05 02:00 | 38.54794 | -85.66221 | 33799 ft | 421 kts | 347° |
| 2026-05-05 02:00 | 38.60603 | -85.67336 | 33801 ft | 422 kts | 347° |
| 2026-05-05 02:01 | 38.66418 | -85.68454 | 33804 ft | 423 kts | 347° |
| 2026-05-05 02:01 | 38.72238 | -85.69576 | 33817 ft | 423 kts | 347° |
| 2026-05-05 02:02 | 38.78025 | -85.70693 | 33816 ft | 423 kts | 347° |
| 2026-05-05 02:02 | 38.83847 | -85.71819 | 33807 ft | 424 kts | 347° |
| 2026-05-05 02:03 | 38.89698 | -85.72952 | 33808 ft | 425 kts | 347° |
| 2026-05-05 02:03 | 38.95537 | -85.74085 | 33793 ft | 425 kts | 347° |
| 2026-05-05 02:04 | 39.01382 | -85.75220 | 33777 ft | 425 kts | 347° |
| 2026-05-05 02:04 | 39.07233 | -85.76360 | 33765 ft | 426 kts | 347° |
| 2026-05-05 02:05 | 39.13109 | -85.77505 | 33768 ft | 427 kts | 347° |
| 2026-05-05 02:05 | 39.18946 | -85.78645 | 33771 ft | 427 kts | 347° |
| 2026-05-05 02:06 | 39.24824 | -85.79795 | 33767 ft | 427 kts | 347° |
| 2026-05-05 02:06 | 39.30698 | -85.80946 | 33765 ft | 427 kts | 347° |
| 2026-05-05 02:07 | 39.36572 | -85.82098 | 33767 ft | 427 kts | 347° |
| 2026-05-05 02:07 | 39.42444 | -85.83253 | 33765 ft | 427 kts | 347° |
| 2026-05-05 02:08 | 39.48313 | -85.84409 | 33767 ft | 427 kts | 347° |
| 2026-05-05 02:08 | 39.54195 | -85.85569 | 33775 ft | 428 kts | 346° |
| 2026-05-05 02:09 | 39.60085 | -85.86733 | 33765 ft | 428 kts | 346° |
| 2026-05-05 02:09 | 39.65949 | -85.87894 | 33403 ft | 430 kts | 346° |
| 2026-05-05 02:10 | 39.68905 | -85.88477 | 33083 ft | 430 kts | 346° |
| 2026-05-05 02:10 | 39.71867 | -85.89065 | 32789 ft | 429 kts | 346° |
| 2026-05-05 02:10 | 39.74826 | -85.89654 | 32551 ft | 429 kts | 346° |
| 2026-05-05 02:10 | 39.77785 | -85.90245 | 32301 ft | 430 kts | 346° |
| 2026-05-05 02:11 | 39.80742 | -85.90835 | 32045 ft | 431 kts | 346° |
| 2026-05-05 02:11 | 39.83707 | -85.91427 | 31799 ft | 431 kts | 346° |
| 2026-05-05 02:11 | 39.86672 | -85.92020 | 31550 ft | 431 kts | 346° |
| 2026-05-05 02:11 | 39.89642 | -85.92615 | 31302 ft | 432 kts | 346° |
| 2026-05-05 02:12 | 39.92611 | -85.93210 | 31057 ft | 432 kts | 346° |
| 2026-05-05 02:12 | 39.98576 | -85.94408 | 30557 ft | 437 kts | 346° |
| 2026-05-05 02:12 | 40.01583 | -85.95013 | 30247 ft | 438 kts | 346° |
| 2026-05-05 02:13 | 40.04603 | -85.95622 | 29853 ft | 440 kts | 346° |
| 2026-05-05 02:13 | 40.07587 | -85.96224 | 29424 ft | 440 kts | 346° |
| 2026-05-05 02:13 | 40.10619 | -85.96836 | 28973 ft | 440 kts | 346° |
| 2026-05-05 02:13 | 40.13640 | -85.97446 | 28531 ft | 438 kts | 347° |
| 2026-05-05 02:14 | 40.16633 | -85.98051 | 28101 ft | 434 kts | 346° |
| 2026-05-05 02:14 | 40.19611 | -85.98654 | 27691 ft | 431 kts | 347° |
| 2026-05-05 02:14 | 40.22577 | -85.99256 | 27279 ft | 429 kts | 347° |
| 2026-05-05 02:14 | 40.25526 | -85.99855 | 26872 ft | 427 kts | 347° |
| 2026-05-05 02:15 | 40.28456 | -86.00451 | 26482 ft | 424 kts | 347° |
| 2026-05-05 02:15 | 40.31364 | -86.01043 | 26101 ft | 422 kts | 347° |
| 2026-05-05 02:15 | 40.34257 | -86.01632 | 25724 ft | 419 kts | 347° |
| 2026-05-05 02:15 | 40.36163 | -86.02021 | 25478 ft | 418 kts | 347° |
| 2026-05-05 02:16 | 40.39024 | -86.02604 | 25119 ft | 415 kts | 347° |
| 2026-05-05 02:16 | 40.41874 | -86.03186 | 24784 ft | 413 kts | 347° |
| 2026-05-05 02:16 | 40.44710 | -86.03766 | 24436 ft | 411 kts | 347° |
| 2026-05-05 02:16 | 40.48441 | -86.04530 | 23982 ft | 408 kts | 347° |
| 2026-05-05 02:17 | 40.51234 | -86.05102 | 23754 ft | 403 kts | 347° |
| 2026-05-05 02:17 | 40.53113 | -86.05365 | 23917 ft | 403 kts | 354° |
| 2026-05-05 02:17 | 40.55804 | -86.05380 | 25575 ft | 356 kts | 355° |
| 2026-05-05 02:17 | 40.58104 | -86.05368 | 27350 ft | 332 kts | 355° |
| 2026-05-05 02:18 | 40.60583 | -86.05326 | 25848 ft | 378 kts | 356° |
| 2026-05-05 02:18 | 40.63262 | -86.05253 | 25069 ft | 384 kts | 355° |
| 2026-05-05 02:18 | 40.65959 | -86.05278 | 24117 ft | 397 kts | 355° |
| 2026-05-05 02:18 | 40.68657 | -86.05288 | 24377 ft | 387 kts | 355° |
| 2026-05-05 02:19 | 40.71424 | -86.05297 | 23639 ft | 406 kts | 356° |
| 2026-05-05 02:19 | 40.74260 | -86.05238 | 22573 ft | 409 kts | 356° |
| 2026-05-05 02:19 | 40.77115 | -86.05182 | 21428 ft | 411 kts | 356° |
| 2026-05-05 02:19 | 40.79980 | -86.05122 | 20262 ft | 413 kts | 356° |
| 2026-05-05 02:20 | 40.82857 | -86.05064 | 19221 ft | 414 kts | 356° |
| 2026-05-05 02:20 | 40.85697 | -86.05000 | 18623 ft | 402 kts | 356° |
| 2026-05-05 02:20 | 40.88453 | -86.04938 | 18127 ft | 389 kts | 356° |
| 2026-05-05 02:20 | 40.91125 | -86.04911 | 17586 ft | 376 kts | 352° |
| 2026-05-05 02:21 | 40.93587 | -86.05619 | 17042 ft | 360 kts | 332° |
| 2026-05-05 02:21 | 40.95618 | -86.07411 | 16547 ft | 347 kts | 312° |
| 2026-05-05 02:21 | 40.96988 | -86.09974 | 16094 ft | 339 kts | 292° |
| 2026-05-05 02:21 | 40.97735 | -86.12912 | 15686 ft | 336 kts | 285° |
| 2026-05-05 02:22 | 40.98408 | -86.15873 | 15277 ft | 335 kts | 285° |
| 2026-05-05 02:22 | 40.99081 | -86.18820 | 14861 ft | 333 kts | 285° |
| 2026-05-05 02:22 | 40.99743 | -86.21710 | 14427 ft | 323 kts | 285° |
| 2026-05-05 02:22 | 41.00388 | -86.24509 | 13998 ft | 313 kts | 285° |
| 2026-05-05 02:23 | 41.01018 | -86.27228 | 13580 ft | 304 kts | 285° |
| 2026-05-05 02:23 | 41.01638 | -86.29870 | 13154 ft | 296 kts | 286° |
| 2026-05-05 02:23 | 41.02249 | -86.32445 | 12729 ft | 289 kts | 286° |
| 2026-05-05 02:23 | 41.02859 | -86.34982 | 12157 ft | 288 kts | 286° |
| 2026-05-05 02:24 | 41.03468 | -86.37461 | 11777 ft | 280 kts | 287° |
| 2026-05-05 02:24 | 41.04073 | -86.39886 | 11384 ft | 274 kts | 287° |
| 2026-05-05 02:24 | 41.04583 | -86.41896 | 11192 ft | 266 kts | 287° |
| 2026-05-05 02:24 | 41.05293 | -86.44095 | 11080 ft | 261 kts | 295° |
| 2026-05-05 02:25 | 41.06155 | -86.46222 | 11048 ft | 264 kts | 296° |
| 2026-05-05 02:25 | 41.07033 | -86.48375 | 10996 ft | 267 kts | 296° |
| 2026-05-05 02:25 | 41.07923 | -86.50550 | 10988 ft | 268 kts | 296° |
| 2026-05-05 02:25 | 41.08810 | -86.52722 | 10979 ft | 268 kts | 296° |
| 2026-05-05 02:26 | 41.09698 | -86.54896 | 10984 ft | 269 kts | 296° |
| 2026-05-05 02:26 | 41.10590 | -86.57078 | 10981 ft | 269 kts | 296° |
| 2026-05-05 02:26 | 41.11485 | -86.59273 | 10981 ft | 270 kts | 296° |
| 2026-05-05 02:26 | 41.12472 | -86.61409 | 10908 ft | 273 kts | 307° |
| 2026-05-05 02:27 | 41.13843 | -86.63165 | 10909 ft | 275 kts | 315° |
| 2026-05-05 02:27 | 41.15293 | -86.64832 | 10874 ft | 276 kts | 315° |
| 2026-05-05 02:27 | 41.16740 | -86.66504 | 10810 ft | 276 kts | 316° |
| 2026-05-05 02:27 | 41.18188 | -86.68172 | 10746 ft | 275 kts | 316° |
| 2026-05-05 02:28 | 41.19615 | -86.69817 | 10683 ft | 274 kts | 316° |
| 2026-05-05 02:28 | 41.21054 | -86.71476 | 10624 ft | 274 kts | 316° |
| 2026-05-05 02:28 | 41.22495 | -86.73136 | 10563 ft | 274 kts | 316° |
| 2026-05-05 02:28 | 41.23935 | -86.74797 | 10498 ft | 273 kts | 316° |
| 2026-05-05 02:29 | 41.25377 | -86.76460 | 10435 ft | 273 kts | 316° |
| 2026-05-05 02:29 | 41.26814 | -86.78117 | 10367 ft | 273 kts | 316° |
| 2026-05-05 02:29 | 41.28250 | -86.79776 | 10302 ft | 273 kts | 316° |
| 2026-05-05 02:29 | 41.29682 | -86.81429 | 10235 ft | 272 kts | 316° |
| 2026-05-05 02:30 | 41.31112 | -86.83084 | 10173 ft | 273 kts | 316° |
| 2026-05-05 02:30 | 41.32546 | -86.84741 | 10092 ft | 273 kts | 316° |
| 2026-05-05 02:30 | 41.33977 | -86.86396 | 10029 ft | 272 kts | 316° |
| 2026-05-05 02:30 | 41.35407 | -86.88054 | 9959 ft | 272 kts | 316° |
| 2026-05-05 02:31 | 41.36837 | -86.89709 | 9895 ft | 272 kts | 316° |
| 2026-05-05 02:31 | 41.38248 | -86.91347 | 9832 ft | 272 kts | 316° |
| 2026-05-05 02:31 | 41.39683 | -86.93010 | 9642 ft | 274 kts | 316° |
| 2026-05-05 02:31 | 41.41107 | -86.94698 | 9382 ft | 273 kts | 315° |
| 2026-05-05 02:32 | 41.42495 | -86.96411 | 9143 ft | 271 kts | 315° |
| 2026-05-05 02:32 | 41.43883 | -86.98116 | 8752 ft | 272 kts | 315° |
| 2026-05-05 02:32 | 41.45268 | -86.99826 | 8372 ft | 269 kts | 312° |
| 2026-05-05 02:32 | 41.46319 | -87.01848 | 7978 ft | 264 kts | 297° |
| 2026-05-05 02:33 | 41.47139 | -87.04019 | 7649 ft | 262 kts | 295° |
| 2026-05-05 02:33 | 41.47955 | -87.06182 | 7295 ft | 260 kts | 296° |
| 2026-05-05 02:33 | 41.48763 | -87.08329 | 6908 ft | 259 kts | 296° |
| 2026-05-05 02:33 | 41.49574 | -87.10472 | 6559 ft | 258 kts | 296° |
| 2026-05-05 02:34 | 41.50380 | -87.12601 | 6260 ft | 255 kts | 296° |
| 2026-05-05 02:34 | 41.51213 | -87.14656 | 6117 ft | 251 kts | 304° |
| 2026-05-05 02:34 | 41.52521 | -87.16199 | 6083 ft | 256 kts | 329° |
| 2026-05-05 02:34 | 41.54164 | -87.17111 | 6045 ft | 262 kts | 335° |
| 2026-05-05 02:35 | 41.55875 | -87.17969 | 5943 ft | 261 kts | 335° |
| 2026-05-05 02:35 | 41.57578 | -87.18823 | 5959 ft | 261 kts | 335° |
| 2026-05-05 02:35 | 41.59285 | -87.19682 | 5969 ft | 263 kts | 335° |
| 2026-05-05 02:35 | 41.60999 | -87.20542 | 5969 ft | 263 kts | 335° |
| 2026-05-05 02:36 | 41.62711 | -87.21398 | 5962 ft | 263 kts | 335° |
| 2026-05-05 02:36 | 41.64423 | -87.22256 | 5959 ft | 260 kts | 335° |
| 2026-05-05 02:36 | 41.66083 | -87.23082 | 5930 ft | 250 kts | 335° |
| 2026-05-05 02:36 | 41.67695 | -87.23889 | 5899 ft | 245 kts | 335° |
| 2026-05-05 02:37 | 41.69289 | -87.24685 | 5885 ft | 243 kts | 334° |
| 2026-05-05 02:37 | 41.70866 | -87.25477 | 5920 ft | 241 kts | 334° |
| 2026-05-05 02:37 | 41.72432 | -87.26269 | 5977 ft | 241 kts | 334° |
| 2026-05-05 02:37 | 41.74010 | -87.27068 | 5878 ft | 245 kts | 334° |
| 2026-05-05 02:38 | 41.75605 | -87.27875 | 5714 ft | 244 kts | 334° |
| 2026-05-05 02:38 | 41.77142 | -87.28767 | 5610 ft | 239 kts | 329° |
| 2026-05-05 02:38 | 41.78622 | -87.29713 | 5477 ft | 240 kts | 329° |
| 2026-05-05 02:38 | 41.80139 | -87.30671 | 5208 ft | 242 kts | 329° |
| 2026-05-05 02:39 | 41.81662 | -87.31625 | 4925 ft | 241 kts | 329° |
| 2026-05-05 02:39 | 41.83172 | -87.32595 | 4616 ft | 238 kts | 324° |
| 2026-05-05 02:39 | 41.84359 | -87.34038 | 4327 ft | 226 kts | 299° |
| 2026-05-05 02:39 | 41.84890 | -87.35959 | 4091 ft | 218 kts | 275° |
| 2026-05-05 02:40 | 41.84941 | -87.37985 | 3814 ft | 218 kts | 270° |
| 2026-05-05 02:40 | 41.84958 | -87.40028 | 3498 ft | 219 kts | 270° |
| 2026-05-05 02:40 | 41.84986 | -87.42066 | 3234 ft | 217 kts | 270° |
| 2026-05-05 02:40 | 41.85024 | -87.44058 | 3116 ft | 212 kts | 270° |
| 2026-05-05 02:41 | 41.85037 | -87.46031 | 3086 ft | 212 kts | 268° |
| 2026-05-05 02:41 | 41.85040 | -87.47935 | 3021 ft | 199 kts | 268° |
| 2026-05-05 02:41 | 41.85040 | -87.49767 | 2935 ft | 193 kts | 268° |
| 2026-05-05 02:41 | 41.85041 | -87.51567 | 2941 ft | 194 kts | 268° |
| 2026-05-05 02:42 | 41.85038 | -87.53381 | 2944 ft | 195 kts | 268° |
| 2026-05-05 02:42 | 41.85037 | -87.55199 | 2945 ft | 195 kts | 268° |
| 2026-05-05 02:42 | 41.84980 | -87.56961 | 2921 ft | 181 kts | 264° |
| 2026-05-05 02:42 | 41.84897 | -87.58599 | 2782 ft | 172 kts | 265° |
| 2026-05-05 02:43 | 41.84828 | -87.60128 | 2758 ft | 158 kts | 264° |
| 2026-05-05 02:43 | 41.84761 | -87.61561 | 2758 ft | 156 kts | 264° |
| 2026-05-05 02:43 | 41.84685 | -87.63019 | 2615 ft | 157 kts | 263° |
| 2026-05-05 02:43 | 41.84613 | -87.64445 | 2473 ft | 146 kts | 262° |
| 2026-05-05 02:44 | 41.84456 | -87.65697 | 2280 ft | 130 kts | 247° |
| 2026-05-05 02:44 | 41.84080 | -87.66722 | 2108 ft | 112 kts | 243° |
| 2026-05-05 02:44 | 41.83770 | -87.67609 | 1952 ft | 104 kts | 244° |
| 2026-05-05 02:44 | 41.83445 | -87.68498 | 1788 ft | 107 kts | 239° |
| 2026-05-05 02:45 | 41.83043 | -87.69332 | 1655 ft | 107 kts | 234° |
| 2026-05-05 02:45 | 41.82569 | -87.70091 | 1506 ft | 107 kts | 227° |
| 2026-05-05 02:45 | 41.82016 | -87.70809 | 1368 ft | 115 kts | 226° |
| 2026-05-05 02:45 | 41.81423 | -87.71569 | 1242 ft | 120 kts | 223° |
| 2026-05-05 02:46 | 41.80802 | -87.72302 | 1082 ft | 115 kts | 223° |
| 2026-05-05 02:46 | 41.80204 | -87.73017 | 944 ft | 117 kts | 225° |
| 2026-05-05 02:46 | 41.79610 | -87.73779 | 815 ft | 120 kts | 225° |
| 2026-05-05 02:46 | 41.79002 | -87.74559 | 646 ft | 118 kts | 225° |
| 2026-05-05 02:47 | 41.78490 | -87.75214 | 630 ft | 84 kts | 223° |
| 2026-05-05 02:47 | 41.78160 | -87.75626 | 632 ft | 48 kts | 224° |
| 2026-05-05 02:47 | 41.77997 | -87.75825 | 631 ft | 26 kts | 221° |
| 2026-05-05 02:47 | 41.77916 | -87.75842 | 628 ft | 8 kts | 115° |
| 2026-05-05 02:48 | 41.77916 | -87.75762 | 629 ft | 10 kts | 76° |
| 2026-05-05 02:48 | 41.77960 | -87.75677 | 631 ft | 12 kts | 46° |
| 2026-05-05 02:48 | 41.78019 | -87.75595 | 629 ft | 11 kts | 45° |
| 2026-05-05 02:48 | 41.78074 | -87.75526 | 631 ft | 12 kts | 41° |
| 2026-05-05 02:49 | 41.78143 | -87.75446 | 627 ft | 14 kts | 41° |
| 2026-05-05 02:49 | 41.78193 | -87.75355 | 627 ft | 12 kts | 80° |
| 2026-05-05 02:49 | 41.78199 | -87.75229 | 627 ft | 15 kts | 89° |
| 2026-05-05 02:49 | 41.78201 | -87.75081 | 628 ft | 17 kts | 89° |
| 2026-05-05 02:50 | 41.78203 | -87.74913 | 627 ft | 20 kts | 89° |
| 2026-05-05 02:50 | 41.78207 | -87.74726 | 627 ft | 18 kts | 88° |
| 2026-05-05 02:50 | 41.78211 | -87.74548 | 627 ft | 20 kts | 88° |
| 2026-05-05 02:50 | 41.78229 | -87.74429 | 635 ft | 7 kts | 29° |
| 2026-05-05 02:51 | 41.78285 | -87.74424 | 631 ft | 10 kts | 357° |
| 2026-05-05 02:51 | 41.78356 | -87.74439 | 629 ft | 11 kts | 330° |
| 2026-05-05 02:51 | 41.78415 | -87.74514 | 633 ft | 13 kts | 313° |
| 2026-05-05 02:51 | 41.78480 | -87.74554 | 630 ft | 10 kts | 39° |
| 2026-05-05 02:52 | 41.78531 | -87.74481 | 633 ft | 12 kts | 43° |
| 2026-05-05 02:52 | 41.78582 | -87.74418 | 629 ft | 8 kts | 43° |
| 2026-05-05 02:52 | 41.78632 | -87.74356 | 631 ft | 8 kts | 43° |
| 2026-05-05 02:52 | 41.78653 | -87.74307 | 629 ft | 6 kts | 99° |
| 2026-05-05 02:53 | 41.78637 | -87.74269 | 633 ft | 3 kts | 124° |
| 2026-05-05 02:53 | 41.78630 | -87.74257 | 627 ft | 1 kts | 124° |
| 2026-05-05 02:53 | 41.78627 | -87.74250 | 627 ft | 0 kts | 124° |